Aérodrome :
LOGIN :

S'inscrire | Disclaimer

   EN    FR    IT 

 










Légende :    VFR   VFR Marginal   IFR   IFR Intensif   IFR Très Intensif
Visi : 
Plafond : 
>= 8 km
>= 3000ft
5 à 8 km
1000 à 3000 ft
1500m à 5 km
500 à 1000 ft
800 à 1500m
200 à 500 ft
< 800m
< 200 ft
Symboles :   Orages  Brouillard  Fortes neiges  Fortes précipitations  Vent > 20 kt
SIGMETs :   Divers  Orages  Givrage  Turbulence  Onde Orograph.  Cendres Volcan.






- Altitude de l'aérodrome : 69 ft
- AEROPORT FERMÉ.


EGXS - RAF Swinderby

DERNIER METAR :
  • 080620Z AUTO 15009KT 2800 BR NCD M00/M01 Q1034

METARs EXPIRÉS :
  • 080550Z AUTO 15009KT 2800 BR NCD M00/M01 Q1034
  • 080520Z AUTO 15007KT 2900 BR NCD M00/M01 Q1034
  • 080450Z AUTO 15006KT 3600 BR NCD 00/M01 Q1035
  • 080420Z AUTO 16004KT 4100 BR NCD 01/M00 Q1035
  • 080350Z AUTO 17005KT 4900 BR NCD 02/00 Q1035

TAF N/A



MET'MAP, la Météo Aéronautique d'un coup d'oeil ! - Copyright ORBIFLY Décembre 2007 - Disclaimer

ORBIFLY MET'MAP TEAM :

Programmation & Développement : Alexandra Zaïnal
Sur une idée originale de : Baudouin d'Aumeries
Soutien technique & logistique : Manuel Goepfert
Assistance : Marc-Olivier Méhu




SOURCES & CREDITS :

   NOAA